createdAt,value
2018-05-09T00:00:34.738Z,13.79
2018-05-09T00:01:34.742Z,13.81
2018-05-09T00:02:34.762Z,13.63
2018-05-09T00:03:34.770Z,13.62
2018-05-09T00:04:34.785Z,13.69
2018-05-09T00:05:34.796Z,13.63
2018-05-09T00:06:34.798Z,13.55
2018-05-09T00:07:34.823Z,13.51
2018-05-09T00:08:34.821Z,13.43
2018-05-09T00:09:34.856Z,13.29
2018-05-09T00:10:34.862Z,13.11
2018-05-09T00:11:34.865Z,13.03
2018-05-09T00:12:34.869Z,13.09
2018-05-09T00:13:34.879Z,12.97
2018-05-09T00:14:34.895Z,12.93
2018-05-09T00:15:34.905Z,12.89
2018-05-09T00:16:34.924Z,12.93
2018-05-09T00:17:34.939Z,12.85
2018-05-09T00:18:34.945Z,12.85
2018-05-09T00:19:34.947Z,12.99
2018-05-09T00:20:34.964Z,12.97
2018-05-09T00:21:34.976Z,13.04
2018-05-09T00:22:34.976Z,13.00
2018-05-09T00:23:34.991Z,13.07
2018-05-09T00:24:35.003Z,13.06
2018-05-09T00:25:35.016Z,12.97
2018-05-09T00:26:35.038Z,12.99
2018-05-09T00:27:35.032Z,12.92
2018-05-09T00:28:35.053Z,12.92
2018-05-09T00:29:35.063Z,12.99
2018-05-09T00:30:35.071Z,13.06
2018-05-09T00:31:35.078Z,13.09
2018-05-09T00:32:35.105Z,13.21
2018-05-09T00:33:35.095Z,13.22
2018-05-09T00:34:35.114Z,13.20
2018-05-09T00:35:35.126Z,13.09
2018-05-09T00:36:35.145Z,13.07
2018-05-09T00:37:35.139Z,13.09
2018-05-09T00:38:35.160Z,13.06
2018-05-09T00:39:35.168Z,13.11
2018-05-09T00:40:35.177Z,13.11
2018-05-09T00:41:35.325Z,13.24
2018-05-09T00:42:35.194Z,13.14
2018-05-09T00:43:35.205Z,13.11
2018-05-09T00:44:35.221Z,12.95
2018-05-09T00:45:35.223Z,12.95
2018-05-09T00:46:35.236Z,12.84
2018-05-09T00:47:35.253Z,12.57
2018-05-09T00:48:35.273Z,12.66
2018-05-09T00:49:35.277Z,12.71
2018-05-09T00:50:35.279Z,12.74
2018-05-09T00:51:35.302Z,12.75
2018-05-09T00:52:35.305Z,12.70
2018-05-09T00:53:35.315Z,12.49
2018-05-09T00:54:35.327Z,12.41
2018-05-09T00:55:35.377Z,12.41
2018-05-09T00:56:35.352Z,12.38
2018-05-09T00:57:35.357Z,12.38
2018-05-09T00:58:35.367Z,12.27
2018-05-09T00:59:35.380Z,12.27
2018-05-09T01:00:35.399Z,12.38
2018-05-09T01:01:35.401Z,12.33
2018-05-09T01:02:35.414Z,12.39
2018-05-09T01:03:35.421Z,12.26
2018-05-09T01:04:35.431Z,12.31
2018-05-09T01:05:35.438Z,12.34
2018-05-09T01:06:35.450Z,12.54
2018-05-09T01:07:35.469Z,12.57
2018-05-09T01:08:35.473Z,12.54
2018-05-09T01:09:35.505Z,12.45
2018-05-09T01:10:35.498Z,12.45
2018-05-09T01:11:35.502Z,12.49
2018-05-09T01:12:35.514Z,12.41
2018-05-09T01:13:35.531Z,12.29
2018-05-09T01:14:35.551Z,12.34
2018-05-09T01:15:35.549Z,12.42
2018-05-09T01:16:35.560Z,12.33
2018-05-09T01:17:35.565Z,12.33
2018-05-09T01:18:35.577Z,12.27
2018-05-09T01:19:35.594Z,12.31
2018-05-09T01:20:35.602Z,12.26
2018-05-09T01:21:35.611Z,12.26
2018-05-09T01:22:35.634Z,12.33
2018-05-09T01:23:35.640Z,12.21
2018-05-09T01:24:35.651Z,12.24
2018-05-09T01:25:35.650Z,12.23
2018-05-09T01:26:35.666Z,12.16
2018-05-09T01:27:35.680Z,12.04
2018-05-09T01:28:35.686Z,11.94
2018-05-09T01:29:35.693Z,12.06
2018-05-09T01:30:35.701Z,12.13
2018-05-09T01:31:35.716Z,12.11
2018-05-09T01:32:35.741Z,12.05
2018-05-09T01:33:35.743Z,12.11
2018-05-09T01:34:35.747Z,12.15
2018-05-09T01:35:35.758Z,12.15
2018-05-09T01:36:35.771Z,12.15
2018-05-09T01:37:35.794Z,12.02
2018-05-09T01:38:35.789Z,12.01
2018-05-09T01:39:35.805Z,11.87
2018-05-09T01:40:35.810Z,11.94
2018-05-09T01:41:35.829Z,11.77
2018-05-09T01:42:35.830Z,11.46
2018-05-09T01:43:35.854Z,11.52
2018-05-09T01:44:35.855Z,11.46
2018-05-09T01:45:35.871Z,11.36
2018-05-09T01:46:35.876Z,11.11
2018-05-09T01:47:35.896Z,11.07
2018-05-09T01:48:35.893Z,11.39
2018-05-09T01:49:35.904Z,11.41
2018-05-09T01:50:35.911Z,11.31
2018-05-09T01:51:35.918Z,11.47
2018-05-09T01:52:35.932Z,11.41
2018-05-09T01:53:35.944Z,11.47
2018-05-09T01:54:35.955Z,11.52
2018-05-09T01:55:35.971Z,11.68
2018-05-09T01:56:35.972Z,11.62
2018-05-09T01:57:35.981Z,11.65
2018-05-09T01:58:35.993Z,11.56
2018-05-09T01:59:36.009Z,11.68
2018-05-09T02:00:36.014Z,11.67
2018-05-09T02:01:36.025Z,11.70
2018-05-09T02:02:36.032Z,11.70
2018-05-09T02:03:36.053Z,11.56
2018-05-09T02:04:36.068Z,11.43
2018-05-09T02:05:36.068Z,11.52
2018-05-09T02:06:36.079Z,11.46
2018-05-09T02:07:36.103Z,11.43
2018-05-09T02:08:36.094Z,11.35
2018-05-09T02:09:36.112Z,11.09
2018-05-09T02:10:36.117Z,11.03
2018-05-09T02:11:36.125Z,11.17
2018-05-09T02:12:36.141Z,11.25
2018-05-09T02:13:36.158Z,11.35
2018-05-09T02:14:36.157Z,11.36
2018-05-09T02:15:36.183Z,11.41
2018-05-09T02:16:36.200Z,11.34
2018-05-09T02:17:36.199Z,11.32
2018-05-09T02:18:36.199Z,11.35
2018-05-09T02:19:36.209Z,11.47
2018-05-09T02:20:36.221Z,11.53
2018-05-09T02:21:36.232Z,11.52
2018-05-09T02:22:36.242Z,11.74
2018-05-09T02:23:36.260Z,11.65
2018-05-09T02:24:36.261Z,11.64
2018-05-09T02:25:36.280Z,11.68
2018-05-09T02:26:36.281Z,11.70
2018-05-09T02:27:36.287Z,11.62
2018-05-09T02:28:36.302Z,11.68
2018-05-09T02:29:36.318Z,11.53
2018-05-09T02:30:36.320Z,11.43
2018-05-09T02:31:36.337Z,11.41
2018-05-09T02:32:36.356Z,11.21
2018-05-09T02:33:36.372Z,11.16
2018-05-09T02:34:36.364Z,11.07
2018-05-09T02:35:36.375Z,11.17
2018-05-09T02:36:36.384Z,10.96
2018-05-09T02:37:36.396Z,11.10
2018-05-09T02:38:36.402Z,11.24
2018-05-09T02:39:36.436Z,11.19
2018-05-09T02:40:36.422Z,11.32
2018-05-09T02:41:36.430Z,11.28
2018-05-09T02:42:36.442Z,11.19
2018-05-09T02:43:36.460Z,11.17
2018-05-09T02:44:36.466Z,11.38
2018-05-09T02:45:36.473Z,11.32
2018-05-09T02:46:36.479Z,11.21
2018-05-09T02:47:36.498Z,11.14
2018-05-09T02:48:36.501Z,11.44
2018-05-09T02:49:36.516Z,11.47
2018-05-09T02:50:36.526Z,11.43
2018-05-09T02:51:36.531Z,11.49
2018-05-09T02:52:36.540Z,11.43
2018-05-09T02:53:36.561Z,11.47
2018-05-09T02:54:36.562Z,11.49
2018-05-09T02:55:36.573Z,11.32
2018-05-09T02:56:36.583Z,11.17
2018-05-09T02:57:36.605Z,11.14
2018-05-09T02:58:36.608Z,11.03
2018-05-09T02:59:36.611Z,10.83
2018-05-09T03:00:36.634Z,10.92
2018-05-09T03:01:36.637Z,10.92
2018-05-09T03:02:36.644Z,10.81
2018-05-09T03:03:36.666Z,10.99
2018-05-09T03:04:36.668Z,11.01
2018-05-09T03:05:36.675Z,10.99
2018-05-09T03:06:36.684Z,10.98
2018-05-09T03:07:36.698Z,10.98
2018-05-09T03:08:36.706Z,11.11
2018-05-09T03:09:36.711Z,11.25
2018-05-09T03:10:36.744Z,11.24
2018-05-09T03:11:36.730Z,11.25
2018-05-09T03:12:36.745Z,11.25
2018-05-09T03:13:36.769Z,11.19
2018-05-09T03:14:36.766Z,11.34
2018-05-09T03:15:36.781Z,11.17
2018-05-09T03:16:36.776Z,11.20
2018-05-09T03:17:36.791Z,11.25
2018-05-09T03:18:36.801Z,11.19
2018-05-09T03:19:36.808Z,11.32
2018-05-09T03:20:36.834Z,11.32
2018-05-09T03:21:36.829Z,11.31
2018-05-09T03:22:36.836Z,11.34
2018-05-09T03:23:36.852Z,11.39
2018-05-09T03:24:36.868Z,11.38
2018-05-09T03:25:36.935Z,11.21
2018-05-09T03:26:36.879Z,11.13
2018-05-09T03:27:36.893Z,10.98
2018-05-09T03:28:36.899Z,10.96
2018-05-09T03:29:36.911Z,11.06
2018-05-09T03:30:36.919Z,11.03
2018-05-09T03:31:36.929Z,10.96
2018-05-09T03:32:36.937Z,11.03
2018-05-09T03:33:36.959Z,11.01
2018-05-09T03:34:36.964Z,11.06
2018-05-09T03:35:36.969Z,11.14
2018-05-09T03:36:36.975Z,11.17
2018-05-09T03:37:36.985Z,11.17
2018-05-09T03:38:36.995Z,11.25
2018-05-09T03:39:37.006Z,11.21
2018-05-09T03:40:37.015Z,11.19
2018-05-09T03:41:37.022Z,11.19
2018-05-09T03:42:37.033Z,11.16
2018-05-09T03:43:37.049Z,11.10
2018-05-09T03:44:37.059Z,11.07
2018-05-09T03:45:37.069Z,10.99
2018-05-09T03:46:37.076Z,10.96
2018-05-09T03:47:37.082Z,10.83
2018-05-09T03:48:37.096Z,11.07
2018-05-09T03:49:37.103Z,10.98
2018-05-09T03:50:37.112Z,10.84
2018-05-09T03:51:37.120Z,10.77
2018-05-09T03:52:37.130Z,10.62
2018-05-09T03:53:37.147Z,10.52
2018-05-09T03:54:37.151Z,10.34
2018-05-09T03:55:37.160Z,10.39
2018-05-09T03:56:37.177Z,10.34
2018-05-09T03:57:37.189Z,10.58
2018-05-09T03:58:37.191Z,10.58
2018-05-09T03:59:37.197Z,10.59
2018-05-09T04:00:37.211Z,10.51
2018-05-09T04:01:37.227Z,10.39
2018-05-09T04:02:37.229Z,10.46
2018-05-09T04:03:37.239Z,10.44
2018-05-09T04:04:37.248Z,10.32
2018-05-09T04:05:37.270Z,10.46
2018-05-09T04:06:37.270Z,10.43
2018-05-09T04:07:37.284Z,10.55
2018-05-09T04:08:37.286Z,10.55
2018-05-09T04:09:37.343Z,10.47
2018-05-09T04:10:37.307Z,10.53
2018-05-09T04:11:37.421Z,10.52
2018-05-09T04:12:37.325Z,10.40
2018-05-09T04:13:37.340Z,10.39
2018-05-09T04:14:37.366Z,10.47
2018-05-09T04:15:37.352Z,10.47
2018-05-09T04:16:37.365Z,10.39
2018-05-09T04:17:37.400Z,10.36
2018-05-09T04:18:37.386Z,10.33
2018-05-09T04:19:37.392Z,10.30
2018-05-09T04:20:37.436Z,10.26
2018-05-09T04:21:37.412Z,10.40
2018-05-09T04:22:37.421Z,10.40
2018-05-09T04:23:37.620Z,10.53
2018-05-09T04:24:37.751Z,10.53
2018-05-09T04:25:37.452Z,10.56
2018-05-09T04:26:37.585Z,10.43
2018-05-09T04:27:37.472Z,10.44
2018-05-09T04:28:37.479Z,10.47
2018-05-09T04:29:37.492Z,10.53
2018-05-09T04:30:37.506Z,10.66
2018-05-09T04:31:37.531Z,10.71
2018-05-09T04:32:38.390Z,10.51
2018-05-09T04:33:38.391Z,10.36
2018-05-09T04:34:37.736Z,10.24
2018-05-09T04:35:37.870Z,10.18
2018-05-09T04:36:37.557Z,10.19
2018-05-09T04:37:37.623Z,10.19
2018-05-09T04:38:37.586Z,10.06
2018-05-09T04:39:37.591Z,10.12
2018-05-09T04:40:37.960Z,10.14
2018-05-09T04:41:37.609Z,10.18
2018-05-09T04:42:37.621Z,10.17
2018-05-09T04:43:37.653Z,10.25
2018-05-09T04:44:37.635Z,10.37
2018-05-09T04:45:37.642Z,10.26
2018-05-09T04:46:37.655Z,10.18
2018-05-09T04:47:37.669Z,10.25
2018-05-09T04:48:37.673Z,10.17
2018-05-09T04:49:37.681Z,10.19
2018-05-09T04:50:37.711Z,10.18
2018-05-09T04:51:37.701Z,10.26
2018-05-09T04:52:37.714Z,10.33
2018-05-09T04:53:37.719Z,10.39
2018-05-09T04:54:37.748Z,10.36
2018-05-09T04:55:37.858Z,10.39
2018-05-09T04:56:37.749Z,10.32
2018-05-09T04:57:37.759Z,10.39
2018-05-09T04:58:37.767Z,10.39
2018-05-09T04:59:37.778Z,10.40
2018-05-09T05:00:37.789Z,10.37
2018-05-09T05:01:37.796Z,10.33
2018-05-09T05:02:37.824Z,10.34
2018-05-09T05:03:37.816Z,10.37
2018-05-09T05:04:37.833Z,10.37
2018-05-09T05:05:37.839Z,10.47
2018-05-09T05:06:37.850Z,10.53
2018-05-09T05:07:37.859Z,10.58
2018-05-09T05:08:37.865Z,10.62
2018-05-09T05:09:37.875Z,10.53
2018-05-09T05:10:37.884Z,10.55
2018-05-09T05:11:37.894Z,10.56
2018-05-09T05:12:37.910Z,10.58
2018-05-09T05:13:37.911Z,10.59
2018-05-09T05:14:37.948Z,10.59
2018-05-09T05:15:37.953Z,10.58
2018-05-09T05:16:37.947Z,10.58
2018-05-09T05:17:37.953Z,10.65
2018-05-09T05:18:37.963Z,10.74
2018-05-09T05:19:37.976Z,10.70
2018-05-09T05:20:37.983Z,10.68
2018-05-09T05:21:37.991Z,10.76
2018-05-09T05:22:38.014Z,10.77
2018-05-09T05:23:38.027Z,10.74
2018-05-09T05:24:38.020Z,10.76
2018-05-09T05:25:38.056Z,10.74
2018-05-09T05:26:38.038Z,10.84
2018-05-09T05:27:38.050Z,10.83
2018-05-09T05:28:38.061Z,10.95
2018-05-09T05:29:38.078Z,11.01
2018-05-09T05:30:38.086Z,11.09
2018-05-09T05:31:38.095Z,11.20
2018-05-09T05:32:38.100Z,11.14
2018-05-09T05:33:38.108Z,11.19
2018-05-09T05:34:38.121Z,11.20
2018-05-09T05:35:38.169Z,11.31
2018-05-09T05:36:38.140Z,11.31
2018-05-09T05:37:38.155Z,11.39
2018-05-09T05:38:38.164Z,11.43
2018-05-09T05:39:38.171Z,11.46
2018-05-09T05:40:38.182Z,11.52
2018-05-09T05:41:38.193Z,11.50
2018-05-09T05:42:38.227Z,11.61
2018-05-09T05:43:38.208Z,11.82
2018-05-09T05:44:38.228Z,11.93
2018-05-09T05:45:38.235Z,12.04
2018-05-09T05:46:38.238Z,12.04
2018-05-09T05:47:38.249Z,12.13
2018-05-09T05:48:38.260Z,12.23
2018-05-09T05:49:38.283Z,12.23
2018-05-09T05:50:38.302Z,12.31
2018-05-09T05:51:38.290Z,12.37
2018-05-09T05:52:38.314Z,12.26
2018-05-09T05:53:38.312Z,12.30
2018-05-09T05:54:38.352Z,12.39
2018-05-09T05:55:38.327Z,12.44
2018-05-09T05:56:38.338Z,12.44
2018-05-09T05:57:38.349Z,12.52
2018-05-09T05:58:38.369Z,12.54
2018-05-09T05:59:38.371Z,12.57
2018-05-09T06:00:38.388Z,12.69
2018-05-09T06:01:38.391Z,12.62
2018-05-09T06:02:38.401Z,12.64
2018-05-09T06:03:38.415Z,12.74
2018-05-09T06:04:38.423Z,12.71
2018-05-09T06:05:38.432Z,12.84
2018-05-09T06:06:38.443Z,12.88
2018-05-09T06:07:38.478Z,12.89
2018-05-09T06:08:38.503Z,12.95
2018-05-09T06:09:38.474Z,12.99
2018-05-09T06:10:38.483Z,13.07
2018-05-09T06:11:38.503Z,13.09
2018-05-09T06:12:38.507Z,13.22
2018-05-09T06:13:38.520Z,13.17
2018-05-09T06:14:38.537Z,13.32
2018-05-09T06:15:38.545Z,13.30
2018-05-09T06:16:38.554Z,13.43
2018-05-09T06:17:38.556Z,13.55
2018-05-09T06:18:38.568Z,13.61
2018-05-09T06:19:38.577Z,13.83
2018-05-09T06:20:38.589Z,13.77
2018-05-09T06:21:38.622Z,13.79
2018-05-09T06:22:38.610Z,13.87
2018-05-09T06:23:38.635Z,13.99
2018-05-09T06:24:38.627Z,14.01
2018-05-09T06:25:38.642Z,13.98
2018-05-09T06:26:38.652Z,14.13
2018-05-09T06:27:38.663Z,14.13
2018-05-09T06:28:38.671Z,14.21
2018-05-09T06:29:38.685Z,14.28
2018-05-09T06:30:38.695Z,14.35
2018-05-09T06:31:38.704Z,14.52
2018-05-09T06:32:38.745Z,14.56
2018-05-09T06:33:38.753Z,14.68
2018-05-09T06:34:38.743Z,14.68
2018-05-09T06:35:38.756Z,14.75
2018-05-09T06:36:38.757Z,14.86
2018-05-09T06:37:38.843Z,14.87
2018-05-09T06:38:38.799Z,14.90
2018-05-09T06:39:38.790Z,15.01
2018-05-09T06:40:38.804Z,15.05
2018-05-09T06:41:38.812Z,15.06
2018-05-09T06:42:38.828Z,15.03
2018-05-09T06:43:38.902Z,15.15
2018-05-09T06:44:38.843Z,15.11
2018-05-09T06:45:38.853Z,15.21
2018-05-09T06:46:38.865Z,15.13
2018-05-09T06:47:38.902Z,15.20
2018-05-09T06:48:38.887Z,15.20
2018-05-09T06:49:38.979Z,15.09
2018-05-09T06:50:38.910Z,15.11
2018-05-09T06:51:38.923Z,15.26
2018-05-09T06:52:38.939Z,15.28
2018-05-09T06:53:38.947Z,15.30
2018-05-09T06:54:38.952Z,15.41
2018-05-09T06:55:38.966Z,15.39
2018-05-09T06:56:38.975Z,15.33
2018-05-09T06:57:39.421Z,15.45
2018-05-09T06:58:38.999Z,15.51
2018-05-09T06:59:39.017Z,15.57
2018-05-09T07:00:39.018Z,15.67
2018-05-09T07:01:39.039Z,15.86
2018-05-09T07:02:39.045Z,15.96
2018-05-09T07:03:39.059Z,15.97
2018-05-09T07:04:39.063Z,16.07
2018-05-09T07:05:39.073Z,16.09
2018-05-09T07:06:39.311Z,16.27
2018-05-09T07:07:39.103Z,16.18
2018-05-09T07:08:39.111Z,16.15
2018-05-09T07:09:39.123Z,16.11
2018-05-09T07:10:39.152Z,16.16
2018-05-09T07:11:39.141Z,16.15
2018-05-09T07:12:39.201Z,16.01
2018-05-09T07:13:39.165Z,16.07
2018-05-09T07:14:39.180Z,16.12
2018-05-09T07:15:39.187Z,16.12
2018-05-09T07:16:39.200Z,16.15
2018-05-09T07:17:39.392Z,16.12
2018-05-09T07:18:39.221Z,16.16
2018-05-09T07:19:39.229Z,16.09
2018-05-09T07:20:39.240Z,16.23
2018-05-09T07:21:39.281Z,16.34
2018-05-09T07:22:39.291Z,16.25
2018-05-09T07:23:39.277Z,16.37
2018-05-09T07:24:39.393Z,16.18
2018-05-09T07:25:39.297Z,16.40
2018-05-09T07:26:39.316Z,16.50
2018-05-09T07:27:39.325Z,16.59
2018-05-09T07:28:39.364Z,16.67
2018-05-09T07:29:39.343Z,16.58
2018-05-09T07:30:39.365Z,16.49
2018-05-09T07:31:39.366Z,16.44
2018-05-09T07:32:39.383Z,16.41
2018-05-09T07:33:39.400Z,16.38
2018-05-09T07:34:39.400Z,16.42
2018-05-09T07:35:39.421Z,16.49
2018-05-09T07:36:39.423Z,16.49
2018-05-09T07:37:39.438Z,16.50
2018-05-09T07:38:39.447Z,16.55
2018-05-09T07:39:39.461Z,16.52
2018-05-09T07:40:39.496Z,16.59
2018-05-09T07:41:39.480Z,16.62
2018-05-09T07:42:39.515Z,16.58
2018-05-09T07:43:39.534Z,16.65
2018-05-09T07:44:39.517Z,16.70
2018-05-09T07:45:39.525Z,16.67
2018-05-09T07:46:39.535Z,16.78
2018-05-09T07:47:39.645Z,16.85
2018-05-09T07:48:39.563Z,16.85
2018-05-09T07:49:39.569Z,16.86
2018-05-09T07:50:39.591Z,16.83
2018-05-09T07:51:39.601Z,16.85
2018-05-09T07:52:39.615Z,16.80
2018-05-09T07:53:39.624Z,16.89
2018-05-09T07:54:39.667Z,16.86
2018-05-09T07:55:39.649Z,16.86
2018-05-09T07:56:39.668Z,16.86
2018-05-09T07:57:39.666Z,16.86
2018-05-09T07:58:39.676Z,16.98
2018-05-09T07:59:39.692Z,17.10
2018-05-09T08:00:39.707Z,17.13
2018-05-09T08:01:39.727Z,17.15
2018-05-09T08:02:39.726Z,17.25
2018-05-09T08:03:39.740Z,17.22
2018-05-09T08:04:39.747Z,17.22
2018-05-09T08:05:39.758Z,17.30
2018-05-09T08:06:39.776Z,17.32
2018-05-09T08:07:39.793Z,17.36
2018-05-09T08:08:39.799Z,17.35
2018-05-09T08:09:39.805Z,17.38
2018-05-09T08:10:39.819Z,17.33
2018-05-09T08:11:39.832Z,17.40
2018-05-09T08:12:39.843Z,17.47
2018-05-09T08:13:39.855Z,17.62
2018-05-09T08:14:39.869Z,17.54
2018-05-09T08:15:39.878Z,17.57
2018-05-09T08:16:39.892Z,17.82
2018-05-09T08:17:39.933Z,17.88
2018-05-09T08:18:39.917Z,18.03
2018-05-09T08:19:39.961Z,18.04
2018-05-09T08:20:39.937Z,18.03
2018-05-09T08:21:39.955Z,17.97
2018-05-09T08:22:39.962Z,18.04
2018-05-09T08:23:39.982Z,18.04
2018-05-09T08:24:39.986Z,18.02
2018-05-09T08:25:40.048Z,18.02
2018-05-09T08:26:40.014Z,18.04
2018-05-09T08:27:47.870Z,18.02
2018-05-09T08:29:33.613Z,17.99
2018-05-09T08:30:33.496Z,18.00
2018-05-09T08:32:38.121Z,18.09
2018-05-09T08:33:38.032Z,18.12
2018-05-09T08:35:42.576Z,18.12
2018-05-09T08:36:42.669Z,18.18
2018-05-09T08:38:47.339Z,18.27
2018-05-09T08:39:47.088Z,18.28
2018-05-09T08:41:51.622Z,18.44
2018-05-09T08:42:51.674Z,18.47
2018-05-09T08:44:56.107Z,18.52
2018-05-09T08:45:56.263Z,18.52
2018-05-09T08:48:00.760Z,18.44
2018-05-09T08:49:00.601Z,18.44
2018-05-09T08:51:05.187Z,18.42
2018-05-09T08:52:05.127Z,18.52
2018-05-09T08:54:09.725Z,18.70
2018-05-09T08:55:09.627Z,18.79
2018-05-09T08:57:14.154Z,18.79
2018-05-09T08:58:14.264Z,18.90
2018-05-09T09:00:07.822Z,19.08
2018-05-09T09:01:07.577Z,19.21
2018-05-09T09:03:12.100Z,19.38
2018-05-09T09:04:12.189Z,19.31
2018-05-09T09:06:16.616Z,19.47
2018-05-09T09:07:16.790Z,19.40
2018-05-09T09:09:20.636Z,19.31
2018-05-09T09:10:20.727Z,19.32
2018-05-09T09:12:25.251Z,19.38
2018-05-09T09:13:25.124Z,19.31
2018-05-09T09:15:30.307Z,19.51
2018-05-09T09:16:29.706Z,19.48
2018-05-09T09:18:34.188Z,19.60
2018-05-09T09:19:34.143Z,19.61
2018-05-09T09:21:38.272Z,19.72
2018-05-09T09:22:38.208Z,19.83
2018-05-09T09:24:42.805Z,19.76
2018-05-09T09:25:42.722Z,19.63
2018-05-09T09:27:47.360Z,19.46
2018-05-09T09:28:47.224Z,19.54
2018-05-09T09:30:51.816Z,19.66
2018-05-09T09:31:51.737Z,19.76
2018-05-09T09:33:56.248Z,20.02
2018-05-09T09:34:56.339Z,20.10
2018-05-09T09:35:56.313Z,20.03
2018-05-09T09:36:56.373Z,20.00
2018-05-09T09:37:56.278Z,19.95
2018-05-09T09:38:56.292Z,20.05
2018-05-09T09:39:56.322Z,20.13
2018-05-09T09:40:56.319Z,20.25
2018-05-09T09:41:56.328Z,20.21
2018-05-09T09:42:56.342Z,20.30
2018-05-09T09:43:56.352Z,20.24
2018-05-09T09:44:56.369Z,20.13
2018-05-09T09:45:56.393Z,20.38
2018-05-09T09:46:56.395Z,20.34
2018-05-09T09:47:56.409Z,20.47
2018-05-09T09:48:56.418Z,20.64
2018-05-09T09:49:56.429Z,20.74
2018-05-09T09:50:56.460Z,20.76
2018-05-09T09:51:56.486Z,20.91
2018-05-09T09:52:56.472Z,21.11
2018-05-09T09:53:56.485Z,21.26
2018-05-09T09:54:56.544Z,21.30
2018-05-09T09:55:56.549Z,21.30
2018-05-09T09:56:56.546Z,21.29
2018-05-09T09:57:56.544Z,21.39
2018-05-09T09:58:56.630Z,21.36
2018-05-09T09:59:56.945Z,21.39
2018-05-09T10:00:56.589Z,21.32
2018-05-09T10:01:56.615Z,21.32
2018-05-09T10:02:56.683Z,21.27
2018-05-09T10:03:56.813Z,21.29
2018-05-09T10:04:56.654Z,21.26
2018-05-09T10:05:56.703Z,21.24
2018-05-09T10:06:56.716Z,21.36
2018-05-09T10:07:56.708Z,21.23
2018-05-09T10:08:56.742Z,21.16
2018-05-09T10:09:56.872Z,20.96
2018-05-09T10:10:56.861Z,20.95
2018-05-09T10:11:56.930Z,20.69
2018-05-09T10:12:56.897Z,20.56
2018-05-09T10:13:56.780Z,20.47
2018-05-09T10:14:56.804Z,20.64
2018-05-09T10:15:56.848Z,20.65
2018-05-09T10:16:56.958Z,20.89
2018-05-09T10:17:56.920Z,20.99
2018-05-09T10:18:56.920Z,21.23
2018-05-09T10:19:56.965Z,21.38
2018-05-09T10:20:56.872Z,21.29
2018-05-09T10:21:57.275Z,21.29
2018-05-09T10:22:56.917Z,21.17
2018-05-09T10:23:56.945Z,20.98
2018-05-09T10:24:56.936Z,20.99
2018-05-09T10:25:56.936Z,20.89
2018-05-09T10:26:57.193Z,20.71
2018-05-09T10:27:56.986Z,20.66
2018-05-09T10:28:56.992Z,20.86
2018-05-09T10:29:57.126Z,20.89
2018-05-09T10:30:57.133Z,21.01
2018-05-09T10:31:57.025Z,20.89
2018-05-09T10:32:57.032Z,20.95
2018-05-09T10:33:57.087Z,21.19
2018-05-09T10:34:57.177Z,21.23
2018-05-09T10:35:57.188Z,21.20
2018-05-09T10:36:57.121Z,21.17
2018-05-09T10:37:57.162Z,21.23
2018-05-09T10:38:57.115Z,21.06
2018-05-09T10:39:57.187Z,21.11
2018-05-09T10:40:57.150Z,21.06
2018-05-09T10:41:57.157Z,21.16
2018-05-09T10:42:57.196Z,20.98
2018-05-09T10:43:57.248Z,21.17
2018-05-09T10:44:57.279Z,21.11
2018-05-09T10:45:57.277Z,21.48
2018-05-09T10:46:57.307Z,21.41
2018-05-09T10:47:57.245Z,21.63
2018-05-09T10:48:57.280Z,21.95
2018-05-09T10:49:57.330Z,22.19
2018-05-09T10:50:57.305Z,22.31
2018-05-09T10:51:57.337Z,22.44
2018-05-09T10:52:57.514Z,22.59
2018-05-09T10:53:57.350Z,22.54
2018-05-09T10:54:57.346Z,22.71
2018-05-09T10:55:57.374Z,22.87
2018-05-09T10:56:57.374Z,23.11
2018-05-09T10:57:57.409Z,22.96
2018-05-09T10:58:57.442Z,23.15
2018-05-09T10:59:57.458Z,23.31
2018-05-09T11:00:57.537Z,23.31
2018-05-09T11:01:57.501Z,23.49
2018-05-09T11:02:57.517Z,23.23
2018-05-09T11:03:57.506Z,23.38
2018-05-09T11:04:57.773Z,23.50
2018-05-09T11:05:57.771Z,23.57
2018-05-09T11:06:57.544Z,23.67
2018-05-09T11:07:57.699Z,23.71
2018-05-09T11:08:57.596Z,23.46
2018-05-09T11:09:57.577Z,23.60
2018-05-09T11:10:57.594Z,23.62
2018-05-09T11:11:58.207Z,23.86
2018-05-09T11:12:57.691Z,23.97
2018-05-09T11:13:57.838Z,24.37
2018-05-09T11:14:57.675Z,24.59
2018-05-09T11:15:57.673Z,24.56
2018-05-09T11:16:57.683Z,23.87
2018-05-09T11:17:57.753Z,23.71
2018-05-09T11:18:57.721Z,24.53
2018-05-09T11:19:57.731Z,25.34
2018-05-09T11:20:57.839Z,25.74
2018-05-09T11:21:57.764Z,26.28
2018-05-09T11:22:57.788Z,26.87
2018-05-09T11:23:57.801Z,27.42
2018-05-09T11:24:57.818Z,27.80
2018-05-09T11:25:58.311Z,28.58
2018-05-09T11:26:57.857Z,29.16
2018-05-09T11:27:57.877Z,29.04
2018-05-09T11:28:57.896Z,29.60
2018-05-09T11:29:58.221Z,29.90
2018-05-09T11:30:57.936Z,29.92
2018-05-09T11:31:57.957Z,30.37
2018-05-09T11:32:57.981Z,29.90
2018-05-09T11:33:58.001Z,30.53
2018-05-09T11:34:58.026Z,30.86
2018-05-09T11:35:58.047Z,31.09
2018-05-09T11:36:58.071Z,30.78
2018-05-09T11:37:58.093Z,31.12
2018-05-09T11:38:58.120Z,30.71
2018-05-09T11:39:58.145Z,30.87
2018-05-09T11:40:58.162Z,31.06
2018-05-09T11:41:58.187Z,31.35
2018-05-09T11:42:58.212Z,31.62
2018-05-09T11:43:58.234Z,31.27
2018-05-09T11:44:58.295Z,31.58
2018-05-09T11:45:58.294Z,32.05
2018-05-09T11:46:58.320Z,31.53
2018-05-09T11:47:58.334Z,31.85
2018-05-09T11:48:58.357Z,31.93
2018-05-09T11:49:58.390Z,32.10
2018-05-09T11:50:58.408Z,32.07
2018-05-09T11:51:58.711Z,32.21
2018-05-09T11:52:58.461Z,32.11
2018-05-09T11:53:58.485Z,32.77
2018-05-09T11:54:58.511Z,32.81
2018-05-09T11:55:58.534Z,31.61
2018-05-09T11:56:58.582Z,32.24
2018-05-09T11:57:58.605Z,32.20
2018-05-09T11:58:58.616Z,31.65
2018-05-09T11:59:58.643Z,32.00
2018-05-09T12:00:58.666Z,32.25
2018-05-09T12:01:58.693Z,32.43
2018-05-09T12:02:58.722Z,32.76
2018-05-09T12:03:58.744Z,32.99
2018-05-09T12:04:58.783Z,33.11
2018-05-09T12:05:58.802Z,32.81
2018-05-09T12:06:58.827Z,33.06
2018-05-09T12:07:58.861Z,32.79
2018-05-09T12:08:58.881Z,32.58
2018-05-09T12:09:58.908Z,32.21
2018-05-09T12:10:58.966Z,32.13
2018-05-09T12:11:58.964Z,32.29
2018-05-09T12:12:58.991Z,32.91
2018-05-09T12:13:59.018Z,33.03
2018-05-09T12:14:59.044Z,33.89
2018-05-09T12:15:59.078Z,33.60
2018-05-09T12:16:59.099Z,33.76
2018-05-09T12:17:59.126Z,33.60
2018-05-09T12:18:59.163Z,33.43
2018-05-09T12:19:59.196Z,33.51
2018-05-09T12:20:59.209Z,33.92
2018-05-09T12:21:59.236Z,33.52
2018-05-09T12:22:59.279Z,33.65
2018-05-09T12:23:59.291Z,34.01
2018-05-09T12:24:59.331Z,34.36
2018-05-09T12:25:59.351Z,34.66
2018-05-09T12:26:59.386Z,34.22
2018-05-09T12:27:59.402Z,34.46
2018-05-09T12:28:59.438Z,33.15
2018-05-09T12:29:59.469Z,33.94
2018-05-09T12:30:59.491Z,34.09
2018-05-09T12:31:59.516Z,34.01
2018-05-09T12:32:59.543Z,34.66
2018-05-09T12:33:59.571Z,34.14
2018-05-09T12:34:59.600Z,34.50
2018-05-09T12:35:59.629Z,34.50
2018-05-09T12:37:00.391Z,34.38
2018-05-09T12:37:59.812Z,34.48
2018-05-09T12:39:00.701Z,33.68
2018-05-09T12:39:59.748Z,32.92
2018-05-09T12:40:59.844Z,33.07
2018-05-09T12:42:00.979Z,33.37
2018-05-09T12:42:59.829Z,33.57
2018-05-09T12:43:59.852Z,33.80
2018-05-09T12:44:59.882Z,34.02
2018-05-09T12:45:59.915Z,33.60
2018-05-09T12:46:59.941Z,33.55
2018-05-09T12:47:59.964Z,33.42
2018-05-09T12:48:59.992Z,32.88
2018-05-09T12:50:00.027Z,33.10
2018-05-09T12:51:00.044Z,33.17
2018-05-09T12:52:00.071Z,33.46
2018-05-09T12:53:00.100Z,33.90
2018-05-09T12:54:00.125Z,34.05
2018-05-09T12:55:00.153Z,34.14
2018-05-09T12:56:00.189Z,32.98
2018-05-09T12:57:00.323Z,33.03
2018-05-09T12:58:00.247Z,33.63
2018-05-09T12:59:00.273Z,34.05
2018-05-09T13:00:00.301Z,33.20
2018-05-09T13:01:00.316Z,32.89
2018-05-09T13:02:00.344Z,32.98
2018-05-09T13:03:00.368Z,33.06
2018-05-09T13:04:00.393Z,33.65
2018-05-09T13:05:00.429Z,34.19
2018-05-09T13:06:00.458Z,33.89
2018-05-09T13:07:00.481Z,33.63
2018-05-09T13:08:00.502Z,34.34
2018-05-09T13:09:00.528Z,34.88
2018-05-09T13:10:00.556Z,34.01
2018-05-09T13:11:00.588Z,34.72
2018-05-09T13:12:00.610Z,34.83
2018-05-09T13:13:00.637Z,34.45
2018-05-09T13:14:00.667Z,34.58
2018-05-09T13:15:00.689Z,35.10
2018-05-09T13:16:00.717Z,34.91